createdAt,value
2023-01-10T00:01:39.025Z,36.88
2023-01-10T00:04:05.752Z,41.63
2023-01-10T00:06:32.583Z,39.83
2023-01-10T00:08:59.399Z,44.22
2023-01-10T00:11:49.123Z,38.60
2023-01-10T00:14:15.935Z,44.08
2023-01-10T00:16:42.869Z,40.42
2023-01-10T00:19:10.789Z,37.65
2023-01-10T00:21:39.791Z,38.70
2023-01-10T00:24:19.076Z,44.83
2023-01-10T00:26:54.238Z,44.20
2023-01-10T00:29:24.120Z,46.63
2023-01-10T00:31:51.060Z,46.22
2023-01-10T00:34:17.933Z,43.53
2023-01-10T00:36:47.371Z,43.92
2023-01-10T00:39:15.409Z,38.80
2023-01-10T00:42:00.887Z,43.88
2023-01-10T00:44:27.826Z,39.40
2023-01-10T00:46:54.648Z,38.78
2023-01-10T00:49:21.434Z,42.65
2023-01-10T00:51:48.432Z,39.40
2023-01-10T00:54:15.398Z,36.10
2023-01-10T00:56:42.226Z,42.03
2023-01-10T00:59:09.509Z,43.40
2023-01-10T01:01:36.750Z,46.97
2023-01-10T01:04:03.909Z,46.47
2023-01-10T01:06:30.700Z,47.03
2023-01-10T01:08:57.531Z,45.28
2023-01-10T01:11:25.358Z,43.72
2023-01-10T01:13:52.296Z,48.50
2023-01-10T01:16:19.230Z,42.45
2023-01-10T01:18:46.231Z,43.78
2023-01-10T01:21:13.056Z,48.05
2023-01-10T01:23:39.887Z,40.15
2023-01-10T01:26:06.729Z,51.25
2023-01-10T01:28:33.654Z,47.58
2023-01-10T01:31:06.375Z,51.45
2023-01-10T01:33:33.252Z,48.35
2023-01-10T01:36:00.135Z,56.72
2023-01-10T01:38:26.889Z,50.83
2023-01-10T01:40:53.636Z,62.95
2023-01-10T01:43:29.041Z,48.08
2023-01-10T01:46:01.160Z,45.33
2023-01-10T01:48:39.932Z,49.05
2023-01-10T01:51:25.363Z,48.22
2023-01-10T01:54:01.439Z,51.55
2023-01-10T01:56:32.782Z,59.88
2023-01-10T01:59:12.738Z,49.17
2023-01-10T02:01:42.476Z,60.60
2023-01-10T02:04:16.334Z,54.55
2023-01-10T02:06:44.834Z,46.80
2023-01-10T02:09:30.457Z,62.47
2023-01-10T02:11:57.282Z,49.20
2023-01-10T02:14:26.328Z,54.90
2023-01-10T02:16:53.204Z,57.30
2023-01-10T02:19:46.036Z,50.95
2023-01-10T02:22:41.844Z,53.88
2023-01-10T02:25:24.007Z,56.92
2023-01-10T02:28:09.288Z,54.42
2023-01-10T02:31:05.704Z,50.53
2023-01-10T02:33:56.447Z,47.72
2023-01-10T02:36:44.227Z,55.10
2023-01-10T02:39:48.076Z,51.10
2023-01-10T02:42:51.339Z,49.17
2023-01-10T02:45:29.675Z,48.35
2023-01-10T02:47:57.705Z,55.92
2023-01-10T02:50:44.184Z,65.88
2023-01-10T02:53:12.092Z,58.33
2023-01-10T02:56:17.157Z,48.92
2023-01-10T02:59:17.378Z,59.50
2023-01-10T03:01:56.537Z,57.45
2023-01-10T03:05:04.289Z,54.45
2023-01-10T03:07:40.279Z,60.80
2023-01-10T03:10:23.734Z,60.35
2023-01-10T03:13:03.761Z,56.50
2023-01-10T03:15:35.583Z,58.45
2023-01-10T03:18:06.918Z,51.53
2023-01-10T03:20:37.081Z,50.00
2023-01-10T03:23:07.004Z,50.00
2023-01-10T03:25:38.078Z,60.70
2023-01-10T03:28:18.151Z,53.05
2023-01-10T03:30:57.011Z,49.17
2023-01-10T03:33:30.869Z,56.90
2023-01-10T03:36:17.357Z,47.70
2023-01-10T03:38:52.279Z,55.70
2023-01-10T03:41:48.312Z,51.53
2023-01-10T03:44:44.229Z,48.88
2023-01-10T03:47:22.459Z,41.92
2023-01-10T03:49:54.171Z,55.38
2023-01-10T03:52:21.968Z,47.95
2023-01-10T03:54:48.963Z,47.15
2023-01-10T03:57:18.465Z,48.05
2023-01-10T03:59:45.808Z,52.28
2023-01-10T04:02:12.897Z,60.03
2023-01-10T04:04:39.693Z,50.92
2023-01-10T04:07:07.217Z,47.90
2023-01-10T04:09:34.085Z,45.75
2023-01-10T04:12:01.020Z,53.88
2023-01-10T04:14:28.514Z,44.78
2023-01-10T04:16:55.896Z,49.60
2023-01-10T04:19:22.758Z,47.25
2023-01-10T04:21:49.555Z,49.85
2023-01-10T04:24:16.394Z,46.05
2023-01-10T04:26:43.488Z,45.35
2023-01-10T04:29:10.688Z,46.33
2023-01-10T04:31:37.890Z,41.75
2023-01-10T04:34:04.660Z,47.20
2023-01-10T04:36:31.459Z,51.92
2023-01-10T04:38:58.245Z,49.83
2023-01-10T04:41:24.999Z,48.20
2023-01-10T04:43:52.532Z,44.72
2023-01-10T04:46:19.476Z,52.20
2023-01-10T04:48:46.292Z,43.75
2023-01-10T04:51:13.060Z,53.47
2023-01-10T04:53:40.011Z,50.58
2023-01-10T04:56:08.631Z,46.10
2023-01-10T04:58:36.998Z,48.58
2023-01-10T05:01:11.984Z,43.35
2023-01-10T05:03:38.866Z,41.75
2023-01-10T05:06:06.149Z,43.20
2023-01-10T05:08:33.532Z,44.95
2023-01-10T05:11:00.522Z,49.45
2023-01-10T05:13:27.531Z,49.00
2023-01-10T05:15:56.266Z,48.65
2023-01-10T05:18:23.274Z,58.35
2023-01-10T05:20:50.186Z,45.90
2023-01-10T05:23:17.089Z,47.47
2023-01-10T05:25:44.716Z,46.45
2023-01-10T05:28:11.545Z,46.90
2023-01-10T05:30:38.404Z,47.00
2023-01-10T05:33:05.242Z,51.33
2023-01-10T05:35:32.017Z,46.42
2023-01-10T05:37:59.449Z,56.10
2023-01-10T05:40:26.326Z,48.38
2023-01-10T05:42:53.114Z,57.22
2023-01-10T05:45:19.979Z,50.88
2023-01-10T05:47:46.787Z,60.55
2023-01-10T05:50:13.686Z,47.22
2023-01-10T05:52:40.485Z,57.00
2023-01-10T05:55:07.641Z,57.20
2023-01-10T05:57:34.471Z,55.50
2023-01-10T06:00:02.039Z,47.60
2023-01-10T06:02:29.558Z,49.47
2023-01-10T06:04:56.413Z,60.42
2023-01-10T06:07:23.172Z,57.90
2023-01-10T06:09:51.450Z,53.78
2023-01-10T06:12:21.085Z,48.58
2023-01-10T06:14:47.960Z,44.92
2023-01-10T06:17:15.988Z,52.00
2023-01-10T06:19:42.753Z,52.67
2023-01-10T06:22:09.625Z,55.45
2023-01-10T06:24:36.484Z,59.00
2023-01-10T06:27:03.382Z,58.20
2023-01-10T06:29:30.218Z,45.80
2023-01-10T06:31:56.979Z,55.33
2023-01-10T06:34:23.787Z,62.67
2023-01-10T06:36:50.557Z,51.17
2023-01-10T06:39:17.291Z,49.10
2023-01-10T06:41:44.045Z,47.58
2023-01-10T06:44:10.787Z,50.58
2023-01-10T06:46:37.628Z,43.85
2023-01-10T06:49:04.409Z,54.97
2023-01-10T06:51:31.162Z,50.00
2023-01-10T06:53:57.969Z,57.00
2023-01-10T06:56:24.743Z,61.13
2023-01-10T06:58:51.795Z,54.05
2023-01-10T07:01:20.944Z,49.78
2023-01-10T07:03:48.053Z,58.72
2023-01-10T07:06:15.414Z,58.20
2023-01-10T07:08:46.479Z,60.97
2023-01-10T07:11:14.940Z,53.78
2023-01-10T07:13:42.093Z,57.28
2023-01-10T07:16:14.619Z,57.28
2023-01-10T07:18:43.039Z,61.55
2023-01-10T07:21:11.189Z,61.33
2023-01-10T07:23:38.894Z,57.83
2023-01-10T07:26:08.392Z,57.30
2023-01-10T07:28:35.421Z,54.40
2023-01-10T07:31:04.254Z,56.08
2023-01-10T07:33:31.669Z,64.63
2023-01-10T07:36:00.172Z,55.05
2023-01-10T07:38:26.997Z,61.85
2023-01-10T07:40:53.794Z,55.33
2023-01-10T07:43:20.573Z,56.42
2023-01-10T07:45:47.356Z,59.83
2023-01-10T07:48:14.455Z,52.40
2023-01-10T07:50:41.293Z,53.50
2023-01-10T07:53:08.667Z,59.53
2023-01-10T07:55:38.984Z,57.08
2023-01-10T07:58:08.042Z,53.08
2023-01-10T08:00:35.602Z,56.70
2023-01-10T08:03:02.535Z,57.00
2023-01-10T08:05:29.471Z,52.72
2023-01-10T08:08:00.053Z,56.38
2023-01-10T08:10:27.655Z,49.25
2023-01-10T08:12:54.639Z,55.60
2023-01-10T08:15:21.988Z,52.67
2023-01-10T08:17:48.829Z,59.95
2023-01-10T08:20:15.860Z,52.38
2023-01-10T08:22:42.712Z,43.35
2023-01-10T08:25:10.295Z,54.25
2023-01-10T08:27:37.391Z,51.83
2023-01-10T08:30:07.995Z,50.28
2023-01-10T08:32:34.829Z,48.25
2023-01-10T08:35:01.616Z,50.85
2023-01-10T08:37:28.952Z,53.13
2023-01-10T08:39:55.820Z,43.72
2023-01-10T08:42:22.765Z,57.38
2023-01-10T08:44:49.557Z,47.20
2023-01-10T08:47:16.761Z,49.90
2023-01-10T08:49:43.730Z,55.75
2023-01-10T08:52:10.668Z,51.47
2023-01-10T08:54:37.618Z,38.38
2023-01-10T08:57:04.631Z,44.50
2023-01-10T08:59:31.479Z,52.70
2023-01-10T09:02:01.086Z,54.88
2023-01-10T09:04:29.087Z,52.25
2023-01-10T09:06:56.823Z,55.33
2023-01-10T09:09:23.706Z,54.08
2023-01-10T09:11:50.650Z,49.75
2023-01-10T09:14:17.419Z,48.95
2023-01-10T09:16:44.219Z,47.13
2023-01-10T09:19:11.083Z,54.50
2023-01-10T09:21:37.903Z,52.05
2023-01-10T09:24:04.849Z,51.00
2023-01-10T09:26:31.680Z,53.92
2023-01-10T09:28:58.509Z,51.80
2023-01-10T09:31:25.340Z,53.92
2023-01-10T09:33:52.152Z,41.03
2023-01-10T09:36:19.153Z,46.30
2023-01-10T09:38:45.996Z,57.78
2023-01-10T09:41:37.190Z,46.10
2023-01-10T09:44:35.854Z,55.05
2023-01-10T09:47:21.987Z,47.20
2023-01-10T09:49:52.934Z,48.00
2023-01-10T09:52:36.013Z,61.05
2023-01-10T09:55:20.525Z,63.25
2023-01-10T09:57:48.284Z,47.45
2023-01-10T10:00:20.091Z,55.45
2023-01-10T10:02:52.760Z,45.55
2023-01-10T10:05:25.684Z,42.20
2023-01-10T10:08:02.554Z,57.75
2023-01-10T10:10:39.576Z,45.80
2023-01-10T10:13:26.801Z,51.47
2023-01-10T10:16:27.569Z,46.65
2023-01-10T10:19:27.208Z,47.60
2023-01-10T10:22:14.641Z,53.60
2023-01-10T10:25:23.630Z,45.30
2023-01-10T10:28:12.504Z,47.88
2023-01-10T10:30:59.964Z,54.72
2023-01-10T10:34:05.739Z,48.10
2023-01-10T10:36:42.099Z,39.28
2023-01-10T10:39:14.934Z,48.15
2023-01-10T10:41:45.758Z,50.63
2023-01-10T10:44:42.772Z,50.50
2023-01-10T10:47:21.996Z,48.15
2023-01-10T10:50:15.780Z,44.70
2023-01-10T10:52:44.848Z,43.00
2023-01-10T10:55:17.215Z,47.70
2023-01-10T10:57:59.553Z,50.92
2023-01-10T11:00:28.958Z,45.20
2023-01-10T11:03:04.484Z,48.53
2023-01-10T11:05:41.253Z,44.17
2023-01-10T11:08:13.995Z,45.08
2023-01-10T11:10:44.465Z,52.97
2023-01-10T11:13:20.123Z,50.72
2023-01-10T11:15:48.822Z,50.63
2023-01-10T11:18:16.831Z,53.60
2023-01-10T11:20:51.584Z,54.20
2023-01-10T11:23:30.382Z,44.58
2023-01-10T11:25:57.303Z,51.03
2023-01-10T11:28:29.783Z,49.88
2023-01-10T11:30:56.881Z,52.90
2023-01-10T11:33:29.954Z,64.30
2023-01-10T11:36:09.366Z,49.38
2023-01-10T11:38:36.828Z,45.85
2023-01-10T11:41:27.191Z,47.83
2023-01-10T11:44:20.696Z,53.08
2023-01-10T11:46:49.582Z,46.97
2023-01-10T11:49:32.758Z,44.88
2023-01-10T11:52:17.114Z,63.17
2023-01-10T11:54:44.048Z,52.95
2023-01-10T11:57:21.294Z,38.47
2023-01-10T11:59:58.579Z,47.78
2023-01-10T12:02:42.901Z,37.35
2023-01-10T12:05:18.215Z,40.95
2023-01-10T12:07:58.665Z,49.15
2023-01-10T12:10:28.679Z,43.75
2023-01-10T12:12:58.960Z,41.88
2023-01-10T12:15:29.716Z,41.20
2023-01-10T12:17:59.878Z,46.13
2023-01-10T12:20:32.764Z,36.88
2023-01-10T12:23:04.868Z,38.72
2023-01-10T12:25:36.090Z,35.33
2023-01-10T12:28:03.437Z,38.88
2023-01-10T12:30:39.271Z,36.30
2023-01-10T12:33:19.863Z,40.25
2023-01-10T12:35:58.660Z,32.25
2023-01-10T12:39:06.535Z,33.55
2023-01-10T12:42:35.859Z,37.58
2023-01-10T12:45:17.060Z,43.45
2023-01-10T12:47:46.858Z,31.17
2023-01-10T12:50:25.067Z,40.50
2023-01-10T12:52:59.640Z,34.63
2023-01-10T12:55:40.953Z,39.42
2023-01-10T12:58:21.884Z,32.30
2023-01-10T13:01:00.742Z,27.92
2023-01-10T13:03:32.464Z,34.47
2023-01-10T13:06:00.917Z,34.83
2023-01-10T13:08:33.218Z,31.50
2023-01-10T13:11:01.378Z,30.90
2023-01-10T13:13:52.331Z,36.13
2023-01-10T13:16:31.596Z,37.97
2023-01-10T13:19:12.399Z,23.50
2023-01-10T13:21:41.626Z,31.23
2023-01-10T13:24:28.536Z,30.70
2023-01-10T13:26:57.810Z,31.73
2023-01-10T13:29:32.102Z,34.15
2023-01-10T13:32:01.844Z,27.25
2023-01-10T13:34:34.309Z,24.40
2023-01-10T13:37:10.639Z,35.05
2023-01-10T13:39:41.043Z,30.90
2023-01-10T13:42:26.692Z,27.90
2023-01-10T13:45:03.347Z,26.30
2023-01-10T13:47:39.547Z,27.23
2023-01-10T13:50:25.477Z,27.75
2023-01-10T13:53:18.138Z,30.27
2023-01-10T13:55:54.087Z,26.08
2023-01-10T13:58:46.898Z,29.65
2023-01-10T14:01:45.855Z,31.23
2023-01-10T14:04:25.498Z,28.17
2023-01-10T14:07:15.587Z,21.95
2023-01-10T14:09:46.119Z,28.75
2023-01-10T14:12:21.708Z,30.10
2023-01-10T14:14:57.166Z,28.75
2023-01-10T14:17:32.404Z,37.42
2023-01-10T14:19:59.162Z,33.38
2023-01-10T14:22:31.266Z,27.23
2023-01-10T14:25:00.532Z,32.08
2023-01-10T14:27:37.697Z,30.50
2023-01-10T14:30:07.101Z,32.30
2023-01-10T14:32:41.099Z,32.13
2023-01-10T14:35:09.941Z,25.27
2023-01-10T14:37:44.095Z,35.22
2023-01-10T14:40:29.214Z,23.38
2023-01-10T14:43:00.121Z,25.88
2023-01-10T14:46:00.835Z,35.28
2023-01-10T14:48:39.874Z,32.65
2023-01-10T14:51:24.025Z,29.55
2023-01-10T14:54:02.238Z,34.97
2023-01-10T14:56:38.111Z,28.83
2023-01-10T14:59:31.196Z,33.05
2023-01-10T15:02:00.909Z,33.38
2023-01-10T15:04:31.151Z,27.45
2023-01-10T15:07:00.178Z,31.15
2023-01-10T15:09:27.582Z,28.13
2023-01-10T15:11:55.598Z,28.88
2023-01-10T15:14:26.358Z,34.67
2023-01-10T15:16:57.700Z,28.23
2023-01-10T15:19:25.434Z,26.52
2023-01-10T15:21:52.322Z,30.00
2023-01-10T15:24:33.683Z,25.00
2023-01-10T15:27:06.255Z,22.73
2023-01-10T15:29:34.141Z,26.35
2023-01-10T15:32:30.319Z,18.65
2023-01-10T15:34:58.357Z,21.05
2023-01-10T15:37:34.107Z,22.05
2023-01-10T15:40:03.888Z,21.92
2023-01-10T15:42:31.717Z,17.90
2023-01-10T15:45:37.520Z,23.90
2023-01-10T15:48:05.299Z,23.40
2023-01-10T15:50:38.637Z,26.77
2023-01-10T15:53:07.134Z,19.13
2023-01-10T15:55:56.156Z,20.38
2023-01-10T15:58:27.311Z,21.38
2023-01-10T16:00:56.294Z,22.30
2023-01-10T16:03:36.749Z,23.20
2023-01-10T16:06:09.797Z,30.20
2023-01-10T16:08:38.708Z,22.20
2023-01-10T16:11:08.850Z,21.65
2023-01-10T16:13:37.481Z,21.63
2023-01-10T16:16:15.549Z,26.52
2023-01-10T16:18:42.468Z,22.10
2023-01-10T16:21:11.345Z,24.48
2023-01-10T16:23:38.324Z,27.73
2023-01-10T16:26:09.084Z,25.35
2023-01-10T16:28:37.482Z,29.58
2023-01-10T16:31:06.858Z,22.27
2023-01-10T16:33:34.254Z,22.80
2023-01-10T16:36:01.267Z,28.90
2023-01-10T16:38:29.220Z,33.30
2023-01-10T16:41:22.137Z,23.92
2023-01-10T16:43:49.934Z,29.98
2023-01-10T16:46:16.764Z,27.25
2023-01-10T16:48:47.592Z,24.98
2023-01-10T16:51:20.343Z,24.80
2023-01-10T16:53:48.206Z,29.50
2023-01-10T16:56:21.177Z,27.08
2023-01-10T16:58:49.411Z,25.88
2023-01-10T17:01:19.515Z,31.63
2023-01-10T17:03:47.225Z,31.98
2023-01-10T17:06:15.420Z,25.83
2023-01-10T17:08:43.901Z,25.48
2023-01-10T17:11:19.601Z,25.75
2023-01-10T17:13:46.878Z,27.77
2023-01-10T17:16:13.963Z,25.63
2023-01-10T17:18:40.854Z,27.30
2023-01-10T17:21:16.160Z,32.22
2023-01-10T17:23:43.273Z,27.92
2023-01-10T17:26:12.399Z,29.60
2023-01-10T17:28:41.118Z,26.33
2023-01-10T17:31:08.931Z,23.98
2023-01-10T17:33:35.821Z,32.30
2023-01-10T17:36:03.040Z,29.92
2023-01-10T17:38:30.354Z,23.95
2023-01-10T17:41:02.155Z,32.03
2023-01-10T17:43:30.417Z,28.27
2023-01-10T17:45:58.968Z,30.88
2023-01-10T17:48:26.440Z,28.08
2023-01-10T17:51:00.045Z,34.20
2023-01-10T17:53:27.417Z,32.38
2023-01-10T17:55:54.952Z,29.48
2023-01-10T17:58:22.324Z,27.58
2023-01-10T18:00:49.807Z,37.30
2023-01-10T18:03:17.296Z,32.92
2023-01-10T18:05:55.656Z,33.78
2023-01-10T18:08:23.502Z,24.75
2023-01-10T18:10:50.839Z,26.92
2023-01-10T18:13:20.227Z,35.10
2023-01-10T18:15:49.010Z,31.23
2023-01-10T18:18:16.962Z,32.53
2023-01-10T18:20:45.052Z,23.75
2023-01-10T18:23:23.005Z,30.00
2023-01-10T18:26:03.005Z,25.73
2023-01-10T18:28:41.700Z,29.27
2023-01-10T18:31:18.272Z,31.50
2023-01-10T18:33:46.911Z,33.10
2023-01-10T18:36:19.336Z,31.75
2023-01-10T18:38:47.996Z,30.88
2023-01-10T18:41:15.743Z,35.63
2023-01-10T18:43:42.690Z,30.77
2023-01-10T18:46:15.498Z,27.80
2023-01-10T18:48:42.456Z,24.98
2023-01-10T18:51:12.621Z,28.42
2023-01-10T18:53:42.598Z,30.27
2023-01-10T18:56:10.006Z,35.20
2023-01-10T18:58:39.582Z,29.55
2023-01-10T19:01:15.144Z,28.23
2023-01-10T19:03:42.574Z,27.65
2023-01-10T19:06:11.544Z,26.27
2023-01-10T19:08:39.625Z,23.90
2023-01-10T19:11:16.459Z,30.65
2023-01-10T19:13:44.679Z,28.02
2023-01-10T19:16:27.277Z,28.80
2023-01-10T19:18:59.516Z,29.60
2023-01-10T19:21:30.258Z,29.58
2023-01-10T19:24:01.218Z,26.27
2023-01-10T19:26:28.308Z,29.35
2023-01-10T19:28:55.631Z,30.05
2023-01-10T19:31:26.430Z,28.58
2023-01-10T19:33:53.862Z,30.98
2023-01-10T19:36:23.003Z,26.35
2023-01-10T19:38:55.252Z,22.58
2023-01-10T19:41:22.449Z,31.38
2023-01-10T19:43:58.194Z,22.88
2023-01-10T19:46:25.777Z,32.53
2023-01-10T19:48:54.941Z,28.52
2023-01-10T19:51:21.873Z,23.73
2023-01-10T19:53:48.777Z,36.60
2023-01-10T19:56:19.791Z,24.67
2023-01-10T19:58:46.619Z,29.42
2023-01-10T20:01:16.690Z,38.15
2023-01-10T20:03:46.653Z,36.80
2023-01-10T20:06:17.184Z,33.45
2023-01-10T20:08:45.087Z,30.67
2023-01-10T20:11:12.034Z,28.77
2023-01-10T20:13:45.209Z,29.75
2023-01-10T20:16:13.737Z,31.70
2023-01-10T20:18:41.237Z,34.80
2023-01-10T20:21:09.951Z,28.88
2023-01-10T20:23:38.802Z,34.88
2023-01-10T20:26:12.098Z,41.05
2023-01-10T20:28:40.298Z,37.92
2023-01-10T20:31:09.615Z,38.88
2023-01-10T20:33:36.737Z,34.55
2023-01-10T20:36:10.966Z,35.10
2023-01-10T20:38:38.164Z,35.10
2023-01-10T20:41:07.629Z,33.25
2023-01-10T20:43:34.850Z,46.17
2023-01-10T20:46:17.533Z,48.03
2023-01-10T20:48:46.235Z,44.17
2023-01-10T20:51:16.103Z,54.72
2023-01-10T20:53:44.102Z,55.15
2023-01-10T20:56:16.411Z,55.35
2023-01-10T20:58:43.560Z,63.67
2023-01-10T21:01:12.452Z,68.82
2023-01-10T21:03:43.337Z,66.75
2023-01-10T21:06:10.651Z,65.57
2023-01-10T21:08:37.658Z,53.47
2023-01-10T21:11:07.024Z,58.33
2023-01-10T21:13:35.063Z,57.15
2023-01-10T21:16:03.200Z,57.33
2023-01-10T21:18:41.341Z,57.90
2023-01-10T21:21:09.321Z,48.17
2023-01-10T21:23:36.496Z,60.38
2023-01-10T21:26:08.885Z,60.80
2023-01-10T21:28:42.493Z,47.38
2023-01-10T21:31:10.697Z,54.13
2023-01-10T21:33:38.328Z,47.03
2023-01-10T21:36:05.851Z,40.70
2023-01-10T21:38:36.245Z,42.38
2023-01-10T21:41:48.323Z,37.33
2023-01-10T21:44:15.168Z,39.00
2023-01-10T21:46:44.646Z,37.22
2023-01-10T21:49:11.593Z,41.45
2023-01-10T21:51:38.668Z,33.40
2023-01-10T21:54:05.658Z,32.17
2023-01-10T21:56:32.743Z,38.75
2023-01-10T21:58:59.533Z,31.20
2023-01-10T22:01:26.452Z,37.15
2023-01-10T22:03:53.425Z,34.85
2023-01-10T22:06:20.440Z,38.05
2023-01-10T22:08:47.441Z,34.22
2023-01-10T22:11:14.241Z,37.63
2023-01-10T22:13:41.129Z,28.30
2023-01-10T22:16:08.209Z,34.95
2023-01-10T22:18:34.993Z,30.60
2023-01-10T22:21:02.332Z,29.98
2023-01-10T22:23:30.988Z,41.13
2023-01-10T22:26:06.681Z,27.42
2023-01-10T22:28:34.110Z,36.10
2023-01-10T22:31:01.336Z,36.30
2023-01-10T22:33:30.316Z,33.58
2023-01-10T22:35:57.274Z,36.10
2023-01-10T22:38:24.139Z,36.83
2023-01-10T22:40:50.974Z,42.00
2023-01-10T22:43:17.712Z,43.28
2023-01-10T22:45:44.579Z,36.67
2023-01-10T22:48:11.417Z,46.15
2023-01-10T22:50:38.286Z,42.92
2023-01-10T22:53:05.112Z,42.70
2023-01-10T22:55:34.255Z,40.75
2023-01-10T22:58:01.092Z,41.38
2023-01-10T23:00:29.000Z,41.65
2023-01-10T23:02:55.780Z,42.78
2023-01-10T23:05:22.784Z,39.80
2023-01-10T23:07:51.485Z,52.10
2023-01-10T23:10:29.885Z,48.25
2023-01-10T23:12:58.168Z,40.35
2023-01-10T23:15:25.472Z,46.42
2023-01-10T23:17:52.394Z,40.30
2023-01-10T23:20:19.385Z,53.17
2023-01-10T23:22:46.432Z,46.85
2023-01-10T23:25:13.511Z,57.38
2023-01-10T23:27:40.353Z,46.67
2023-01-10T23:30:09.124Z,44.38
2023-01-10T23:32:36.020Z,48.60
2023-01-10T23:35:03.081Z,41.92
2023-01-10T23:37:29.997Z,55.47
2023-01-10T23:39:56.839Z,45.30
2023-01-10T23:42:23.730Z,53.70
2023-01-10T23:44:50.588Z,45.78
2023-01-10T23:47:17.544Z,50.35
2023-01-10T23:49:44.309Z,60.35
2023-01-10T23:52:11.109Z,57.63
2023-01-10T23:54:37.862Z,65.88
2023-01-10T23:57:04.690Z,55.17
2023-01-10T23:59:31.476Z,43.67
